sensor_id;sensor_type;location;lat;lon;timestamp;P1;durP1;ratioP1;P2;durP2;ratioP2
73823;SDS011;62154;54.914;73.444;2023-06-10T00:02:28;52.38;;;11.98;;
73823;SDS011;62154;54.914;73.444;2023-06-10T00:04:57;28.95;;;12.43;;
73823;SDS011;62154;54.914;73.444;2023-06-10T00:07:25;43.70;;;14.30;;
73823;SDS011;62154;54.914;73.444;2023-06-10T00:09:52;31.85;;;12.65;;
73823;SDS011;62154;54.914;73.444;2023-06-10T00:12:22;35.50;;;12.50;;
73823;SDS011;62154;54.914;73.444;2023-06-10T00:14:49;36.25;;;12.95;;
73823;SDS011;62154;54.914;73.444;2023-06-10T00:17:18;41.45;;;13.20;;
73823;SDS011;62154;54.914;73.444;2023-06-10T00:19:46;39.63;;;13.00;;
73823;SDS011;62154;54.914;73.444;2023-06-10T00:22:13;30.40;;;11.57;;
73823;SDS011;62154;54.914;73.444;2023-06-10T00:24:41;28.00;;;13.05;;
73823;SDS011;62154;54.914;73.444;2023-06-10T00:27:08;34.35;;;12.90;;
73823;SDS011;62154;54.914;73.444;2023-06-10T00:29:36;29.92;;;13.30;;
73823;SDS011;62154;54.914;73.444;2023-06-10T00:32:04;35.67;;;13.73;;
73823;SDS011;62154;54.914;73.444;2023-06-10T00:34:31;41.97;;;12.98;;
73823;SDS011;62154;54.914;73.444;2023-06-10T00:36:59;35.17;;;14.38;;
73823;SDS011;62154;54.914;73.444;2023-06-10T00:39:26;27.17;;;12.80;;
73823;SDS011;62154;54.914;73.444;2023-06-10T00:41:53;17.65;;;8.48;;
73823;SDS011;62154;54.914;73.444;2023-06-10T00:44:21;23.60;;;7.85;;
73823;SDS011;62154;54.914;73.444;2023-06-10T00:46:48;13.50;;;6.82;;
73823;SDS011;62154;54.914;73.444;2023-06-10T00:49:17;13.68;;;5.78;;
73823;SDS011;62154;54.914;73.444;2023-06-10T00:51:46;14.07;;;6.30;;
73823;SDS011;62154;54.914;73.444;2023-06-10T00:54:15;8.32;;;6.15;;
73823;SDS011;62154;54.914;73.444;2023-06-10T00:56:42;13.40;;;6.05;;
73823;SDS011;62154;54.914;73.444;2023-06-10T00:59:10;11.48;;;5.65;;
73823;SDS011;62154;54.914;73.444;2023-06-10T01:01:38;12.35;;;5.63;;
73823;SDS011;62154;54.914;73.444;2023-06-10T01:04:06;12.32;;;6.00;;
73823;SDS011;62154;54.914;73.444;2023-06-10T01:06:48;12.73;;;6.07;;
73823;SDS011;62154;54.914;73.444;2023-06-10T01:09:30;14.32;;;5.75;;
73823;SDS011;62154;54.914;73.444;2023-06-10T01:15:06;11.63;;;5.95;;
73823;SDS011;62154;54.914;73.444;2023-06-10T01:17:53;10.88;;;5.75;;
73823;SDS011;62154;54.914;73.444;2023-06-10T01:20:28;11.02;;;6.30;;
73823;SDS011;62154;54.914;73.444;2023-06-10T01:23:03;14.65;;;6.18;;
73823;SDS011;62154;54.914;73.444;2023-06-10T01:25:31;21.42;;;6.45;;
73823;SDS011;62154;54.914;73.444;2023-06-10T01:30:42;16.58;;;6.63;;
73823;SDS011;62154;54.914;73.444;2023-06-10T01:33:25;17.13;;;6.88;;
73823;SDS011;62154;54.914;73.444;2023-06-10T01:35:57;20.95;;;6.25;;
73823;SDS011;62154;54.914;73.444;2023-06-10T01:38:26;23.55;;;6.70;;
73823;SDS011;62154;54.914;73.444;2023-06-10T01:40:57;22.35;;;6.57;;
73823;SDS011;62154;54.914;73.444;2023-06-10T01:43:25;15.20;;;6.50;;
73823;SDS011;62154;54.914;73.444;2023-06-10T01:45:52;16.02;;;5.20;;
73823;SDS011;62154;54.914;73.444;2023-06-10T01:48:19;12.88;;;5.50;;
73823;SDS011;62154;54.914;73.444;2023-06-10T01:50:48;19.73;;;5.00;;
73823;SDS011;62154;54.914;73.444;2023-06-10T01:53:20;25.19;;;5.70;;
73823;SDS011;62154;54.914;73.444;2023-06-10T01:55:47;15.00;;;5.18;;
73823;SDS011;62154;54.914;73.444;2023-06-10T01:58:16;13.52;;;4.78;;
73823;SDS011;62154;54.914;73.444;2023-06-10T02:00:45;11.05;;;4.90;;
73823;SDS011;62154;54.914;73.444;2023-06-10T02:03:12;13.45;;;4.95;;
73823;SDS011;62154;54.914;73.444;2023-06-10T02:05:40;13.35;;;4.82;;
73823;SDS011;62154;54.914;73.444;2023-06-10T02:08:08;11.98;;;4.78;;
73823;SDS011;62154;54.914;73.444;2023-06-10T02:10:36;12.98;;;4.93;;
73823;SDS011;62154;54.914;73.444;2023-06-10T02:13:04;6.80;;;4.43;;
73823;SDS011;62154;54.914;73.444;2023-06-10T02:15:33;10.98;;;4.50;;
73823;SDS011;62154;54.914;73.444;2023-06-10T02:18:01;8.98;;;4.25;;
73823;SDS011;62154;54.914;73.444;2023-06-10T02:20:29;8.48;;;4.80;;
73823;SDS011;62154;54.914;73.444;2023-06-10T02:22:59;7.95;;;4.40;;
73823;SDS011;62154;54.914;73.444;2023-06-10T02:25:27;20.63;;;5.50;;
73823;SDS011;62154;54.914;73.444;2023-06-10T02:27:55;12.10;;;4.68;;
73823;SDS011;62154;54.914;73.444;2023-06-10T02:30:23;9.65;;;4.70;;
73823;SDS011;62154;54.914;73.444;2023-06-10T02:32:51;16.73;;;5.10;;
73823;SDS011;62154;54.914;73.444;2023-06-10T02:35:20;14.55;;;4.97;;
73823;SDS011;62154;54.914;73.444;2023-06-10T02:37:50;12.75;;;5.25;;
73823;SDS011;62154;54.914;73.444;2023-06-10T02:40:20;30.17;;;7.22;;
73823;SDS011;62154;54.914;73.444;2023-06-10T02:42:48;18.67;;;6.40;;
73823;SDS011;62154;54.914;73.444;2023-06-10T02:45:15;20.08;;;6.40;;
73823;SDS011;62154;54.914;73.444;2023-06-10T02:47:44;7.85;;;5.18;;
73823;SDS011;62154;54.914;73.444;2023-06-10T02:50:13;19.85;;;5.88;;
73823;SDS011;62154;54.914;73.444;2023-06-10T02:53:09;27.30;;;6.45;;
73823;SDS011;62154;54.914;73.444;2023-06-10T02:55:43;27.57;;;6.70;;
73823;SDS011;62154;54.914;73.444;2023-06-10T02:58:14;19.50;;;6.88;;
73823;SDS011;62154;54.914;73.444;2023-06-10T03:00:43;26.95;;;6.70;;
73823;SDS011;62154;54.914;73.444;2023-06-10T03:03:13;19.70;;;6.07;;
73823;SDS011;62154;54.914;73.444;2023-06-10T03:08:26;16.73;;;6.32;;
73823;SDS011;62154;54.914;73.444;2023-06-10T03:10:54;12.57;;;5.60;;
73823;SDS011;62154;54.914;73.444;2023-06-10T03:13:23;9.50;;;5.07;;
73823;SDS011;62154;54.914;73.444;2023-06-10T03:15:50;18.70;;;5.97;;
73823;SDS011;62154;54.914;73.444;2023-06-10T03:18:21;11.13;;;5.72;;
73823;SDS011;62154;54.914;73.444;2023-06-10T03:20:54;6.95;;;5.00;;
73823;SDS011;62154;54.914;73.444;2023-06-10T03:23:23;13.18;;;5.43;;
73823;SDS011;62154;54.914;73.444;2023-06-10T03:25:51;11.20;;;5.00;;
73823;SDS011;62154;54.914;73.444;2023-06-10T03:28:20;12.50;;;4.97;;
73823;SDS011;62154;54.914;73.444;2023-06-10T03:30:48;19.33;;;5.03;;
73823;SDS011;62154;54.914;73.444;2023-06-10T03:33:17;8.38;;;4.88;;
73823;SDS011;62154;54.914;73.444;2023-06-10T03:35:46;7.93;;;4.55;;
73823;SDS011;62154;54.914;73.444;2023-06-10T03:38:14;13.90;;;4.82;;
73823;SDS011;62154;54.914;73.444;2023-06-10T03:40:41;18.42;;;5.93;;
73823;SDS011;62154;54.914;73.444;2023-06-10T03:43:10;18.65;;;4.85;;
73823;SDS011;62154;54.914;73.444;2023-06-10T03:45:37;14.02;;;5.05;;
73823;SDS011;62154;54.914;73.444;2023-06-10T03:48:05;15.02;;;5.22;;
73823;SDS011;62154;54.914;73.444;2023-06-10T03:50:51;14.48;;;5.05;;
73823;SDS011;62154;54.914;73.444;2023-06-10T03:53:20;12.95;;;5.22;;
73823;SDS011;62154;54.914;73.444;2023-06-10T03:55:48;17.50;;;5.50;;
73823;SDS011;62154;54.914;73.444;2023-06-10T03:58:18;12.82;;;5.65;;
73823;SDS011;62154;54.914;73.444;2023-06-10T04:00:47;13.15;;;5.00;;
73823;SDS011;62154;54.914;73.444;2023-06-10T04:03:16;11.25;;;4.85;;
73823;SDS011;62154;54.914;73.444;2023-06-10T04:05:47;14.43;;;4.70;;
73823;SDS011;62154;54.914;73.444;2023-06-10T04:08:14;10.60;;;5.03;;
73823;SDS011;62154;54.914;73.444;2023-06-10T04:10:42;11.98;;;4.88;;
73823;SDS011;62154;54.914;73.444;2023-06-10T04:13:09;9.77;;;4.93;;
73823;SDS011;62154;54.914;73.444;2023-06-10T04:15:42;10.65;;;5.15;;
73823;SDS011;62154;54.914;73.444;2023-06-10T04:18:16;20.42;;;5.68;;
73823;SDS011;62154;54.914;73.444;2023-06-10T04:20:45;16.98;;;6.03;;
73823;SDS011;62154;54.914;73.444;2023-06-10T04:23:13;17.92;;;5.80;;
73823;SDS011;62154;54.914;73.444;2023-06-10T04:25:43;15.82;;;5.93;;
73823;SDS011;62154;54.914;73.444;2023-06-10T04:28:11;17.38;;;5.88;;
73823;SDS011;62154;54.914;73.444;2023-06-10T04:30:39;26.00;;;5.55;;
73823;SDS011;62154;54.914;73.444;2023-06-10T04:33:08;19.52;;;6.75;;
73823;SDS011;62154;54.914;73.444;2023-06-10T04:35:37;16.58;;;6.40;;
73823;SDS011;62154;54.914;73.444;2023-06-10T04:38:07;22.83;;;6.30;;
73823;SDS011;62154;54.914;73.444;2023-06-10T04:40:35;23.60;;;6.93;;
73823;SDS011;62154;54.914;73.444;2023-06-10T04:43:04;19.23;;;6.28;;
73823;SDS011;62154;54.914;73.444;2023-06-10T04:45:33;13.70;;;6.27;;
73823;SDS011;62154;54.914;73.444;2023-06-10T04:48:01;21.63;;;6.32;;
73823;SDS011;62154;54.914;73.444;2023-06-10T04:50:29;23.55;;;7.00;;
73823;SDS011;62154;54.914;73.444;2023-06-10T04:52:58;24.98;;;6.82;;
73823;SDS011;62154;54.914;73.444;2023-06-10T04:55:26;13.67;;;7.00;;
73823;SDS011;62154;54.914;73.444;2023-06-10T04:57:53;24.38;;;6.90;;
73823;SDS011;62154;54.914;73.444;2023-06-10T05:00:21;17.42;;;7.85;;
73823;SDS011;62154;54.914;73.444;2023-06-10T05:02:48;15.38;;;6.70;;
73823;SDS011;62154;54.914;73.444;2023-06-10T05:05:18;15.40;;;6.30;;
73823;SDS011;62154;54.914;73.444;2023-06-10T05:07:46;11.10;;;5.70;;
73823;SDS011;62154;54.914;73.444;2023-06-10T05:10:13;9.52;;;5.03;;
73823;SDS011;62154;54.914;73.444;2023-06-10T05:12:41;9.68;;;4.78;;
73823;SDS011;62154;54.914;73.444;2023-06-10T05:15:11;15.04;;;5.39;;
73823;SDS011;62154;54.914;73.444;2023-06-10T05:17:39;14.07;;;5.38;;
73823;SDS011;62154;54.914;73.444;2023-06-10T05:20:07;13.43;;;5.15;;
73823;SDS011;62154;54.914;73.444;2023-06-10T05:22:34;13.43;;;4.80;;
73823;SDS011;62154;54.914;73.444;2023-06-10T05:25:02;7.60;;;4.38;;
73823;SDS011;62154;54.914;73.444;2023-06-10T05:27:31;9.85;;;4.95;;
73823;SDS011;62154;54.914;73.444;2023-06-10T05:29:59;10.02;;;4.82;;
73823;SDS011;62154;54.914;73.444;2023-06-10T05:32:26;12.68;;;4.72;;
73823;SDS011;62154;54.914;73.444;2023-06-10T05:34:55;10.10;;;4.40;;
73823;SDS011;62154;54.914;73.444;2023-06-10T05:37:27;8.13;;;4.53;;
73823;SDS011;62154;54.914;73.444;2023-06-10T05:39:55;14.35;;;4.22;;
73823;SDS011;62154;54.914;73.444;2023-06-10T05:42:22;8.23;;;3.60;;
73823;SDS011;62154;54.914;73.444;2023-06-10T05:44:50;13.88;;;3.80;;
73823;SDS011;62154;54.914;73.444;2023-06-10T05:47:18;11.10;;;3.95;;
73823;SDS011;62154;54.914;73.444;2023-06-10T05:49:46;12.25;;;4.43;;
73823;SDS011;62154;54.914;73.444;2023-06-10T05:52:15;15.40;;;4.07;;
73823;SDS011;62154;54.914;73.444;2023-06-10T05:54:43;14.05;;;3.85;;
73823;SDS011;62154;54.914;73.444;2023-06-10T05:57:10;12.05;;;3.60;;
73823;SDS011;62154;54.914;73.444;2023-06-10T05:59:38;10.07;;;4.05;;
73823;SDS011;62154;54.914;73.444;2023-06-10T06:02:05;6.43;;;3.50;;
73823;SDS011;62154;54.914;73.444;2023-06-10T06:04:33;9.52;;;4.10;;
73823;SDS011;62154;54.914;73.444;2023-06-10T06:07:01;9.05;;;3.85;;
73823;SDS011;62154;54.914;73.444;2023-06-10T06:09:28;6.07;;;3.33;;
73823;SDS011;62154;54.914;73.444;2023-06-10T06:11:58;4.93;;;3.50;;
73823;SDS011;62154;54.914;73.444;2023-06-10T06:14:31;9.75;;;3.35;;
73823;SDS011;62154;54.914;73.444;2023-06-10T06:17:01;8.70;;;3.60;;
73823;SDS011;62154;54.914;73.444;2023-06-10T06:19:28;5.40;;;3.33;;
73823;SDS011;62154;54.914;73.444;2023-06-10T06:21:56;13.82;;;4.10;;
73823;SDS011;62154;54.914;73.444;2023-06-10T06:24:24;10.18;;;4.00;;
73823;SDS011;62154;54.914;73.444;2023-06-10T06:26:51;5.80;;;3.60;;
73823;SDS011;62154;54.914;73.444;2023-06-10T06:29:19;8.25;;;3.92;;
73823;SDS011;62154;54.914;73.444;2023-06-10T06:31:46;9.68;;;4.45;;
73823;SDS011;62154;54.914;73.444;2023-06-10T06:34:14;12.35;;;5.07;;
73823;SDS011;62154;54.914;73.444;2023-06-10T06:36:41;10.88;;;4.72;;
73823;SDS011;62154;54.914;73.444;2023-06-10T06:39:09;11.00;;;4.00;;
73823;SDS011;62154;54.914;73.444;2023-06-10T06:41:37;10.00;;;4.20;;
73823;SDS011;62154;54.914;73.444;2023-06-10T06:44:05;8.25;;;3.72;;
73823;SDS011;62154;54.914;73.444;2023-06-10T06:46:38;13.25;;;4.18;;
73823;SDS011;62154;54.914;73.444;2023-06-10T06:49:05;8.07;;;3.70;;
73823;SDS011;62154;54.914;73.444;2023-06-10T06:51:33;8.13;;;3.83;;
73823;SDS011;62154;54.914;73.444;2023-06-10T06:54:01;18.73;;;6.53;;
73823;SDS011;62154;54.914;73.444;2023-06-10T06:56:28;8.80;;;3.80;;
73823;SDS011;62154;54.914;73.444;2023-06-10T06:58:56;10.55;;;5.18;;
73823;SDS011;62154;54.914;73.444;2023-06-10T07:01:24;10.30;;;4.18;;
73823;SDS011;62154;54.914;73.444;2023-06-10T07:03:51;10.00;;;3.90;;
73823;SDS011;62154;54.914;73.444;2023-06-10T07:06:20;12.03;;;3.37;;
73823;SDS011;62154;54.914;73.444;2023-06-10T07:08:48;9.35;;;3.65;;
73823;SDS011;62154;54.914;73.444;2023-06-10T07:11:17;8.35;;;2.90;;
73823;SDS011;62154;54.914;73.444;2023-06-10T07:13:44;10.13;;;3.67;;
73823;SDS011;62154;54.914;73.444;2023-06-10T07:16:17;8.32;;;3.17;;
73823;SDS011;62154;54.914;73.444;2023-06-10T07:18:47;4.28;;;3.28;;
73823;SDS011;62154;54.914;73.444;2023-06-10T07:21:14;7.85;;;3.35;;
73823;SDS011;62154;54.914;73.444;2023-06-10T07:23:42;24.40;;;5.03;;
73823;SDS011;62154;54.914;73.444;2023-06-10T07:26:11;8.65;;;3.40;;
73823;SDS011;62154;54.914;73.444;2023-06-10T07:28:42;6.05;;;3.20;;
73823;SDS011;62154;54.914;73.444;2023-06-10T07:31:10;7.53;;;2.97;;
73823;SDS011;62154;54.914;73.444;2023-06-10T07:33:38;16.48;;;4.03;;
73823;SDS011;62154;54.914;73.444;2023-06-10T07:36:08;11.80;;;3.22;;
73823;SDS011;62154;54.914;73.444;2023-06-10T07:38:35;7.22;;;3.60;;
73823;SDS011;62154;54.914;73.444;2023-06-10T07:41:03;6.68;;;3.50;;
73823;SDS011;62154;54.914;73.444;2023-06-10T07:43:31;6.97;;;3.15;;
73823;SDS011;62154;54.914;73.444;2023-06-10T07:45:59;7.00;;;3.50;;
73823;SDS011;62154;54.914;73.444;2023-06-10T07:48:26;8.77;;;3.17;;
73823;SDS011;62154;54.914;73.444;2023-06-10T07:50:55;8.55;;;3.03;;
73823;SDS011;62154;54.914;73.444;2023-06-10T07:53:22;4.82;;;3.08;;
73823;SDS011;62154;54.914;73.444;2023-06-10T07:55:49;10.50;;;4.80;;
73823;SDS011;62154;54.914;73.444;2023-06-10T07:58:17;10.90;;;4.30;;
73823;SDS011;62154;54.914;73.444;2023-06-10T08:00:48;6.22;;;3.75;;
73823;SDS011;62154;54.914;73.444;2023-06-10T08:03:15;8.05;;;5.22;;
73823;SDS011;62154;54.914;73.444;2023-06-10T08:05:44;9.77;;;3.95;;
73823;SDS011;62154;54.914;73.444;2023-06-10T08:08:21;7.75;;;3.47;;
73823;SDS011;62154;54.914;73.444;2023-06-10T08:10:49;8.80;;;3.20;;
73823;SDS011;62154;54.914;73.444;2023-06-10T08:13:17;5.20;;;3.22;;
73823;SDS011;62154;54.914;73.444;2023-06-10T08:15:44;4.78;;;2.88;;
73823;SDS011;62154;54.914;73.444;2023-06-10T08:18:14;7.20;;;2.90;;
73823;SDS011;62154;54.914;73.444;2023-06-10T08:20:42;5.35;;;3.42;;
73823;SDS011;62154;54.914;73.444;2023-06-10T08:23:09;23.27;;;10.88;;
73823;SDS011;62154;54.914;73.444;2023-06-10T08:25:37;11.30;;;6.25;;
73823;SDS011;62154;54.914;73.444;2023-06-10T08:28:04;7.47;;;5.63;;
73823;SDS011;62154;54.914;73.444;2023-06-10T08:30:32;8.73;;;4.60;;
73823;SDS011;62154;54.914;73.444;2023-06-10T08:32:59;7.80;;;2.88;;
73823;SDS011;62154;54.914;73.444;2023-06-10T08:35:27;14.75;;;5.97;;
73823;SDS011;62154;54.914;73.444;2023-06-10T08:37:54;9.15;;;5.03;;
73823;SDS011;62154;54.914;73.444;2023-06-10T08:40:26;24.30;;;8.82;;
73823;SDS011;62154;54.914;73.444;2023-06-10T08:43:07;18.88;;;4.00;;
73823;SDS011;62154;54.914;73.444;2023-06-10T08:45:41;7.63;;;3.03;;
73823;SDS011;62154;54.914;73.444;2023-06-10T08:48:10;8.68;;;2.92;;
73823;SDS011;62154;54.914;73.444;2023-06-10T08:50:40;11.85;;;3.30;;
73823;SDS011;62154;54.914;73.444;2023-06-10T08:53:08;11.35;;;2.83;;
73823;SDS011;62154;54.914;73.444;2023-06-10T08:55:50;6.85;;;3.08;;
73823;SDS011;62154;54.914;73.444;2023-06-10T08:58:19;26.75;;;4.80;;
73823;SDS011;62154;54.914;73.444;2023-06-10T09:00:47;34.28;;;4.80;;
73823;SDS011;62154;54.914;73.444;2023-06-10T09:03:14;5.28;;;2.70;;
73823;SDS011;62154;54.914;73.444;2023-06-10T09:05:45;17.45;;;3.85;;
73823;SDS011;62154;54.914;73.444;2023-06-10T09:08:13;13.65;;;3.78;;
73823;SDS011;62154;54.914;73.444;2023-06-10T09:10:43;6.50;;;3.33;;
73823;SDS011;62154;54.914;73.444;2023-06-10T09:13:11;13.07;;;3.53;;
73823;SDS011;62154;54.914;73.444;2023-06-10T09:15:45;7.57;;;3.22;;
73823;SDS011;62154;54.914;73.444;2023-06-10T09:18:12;4.32;;;2.70;;
73823;SDS011;62154;54.914;73.444;2023-06-10T09:20:41;9.48;;;3.92;;
73823;SDS011;62154;54.914;73.444;2023-06-10T09:23:09;6.28;;;3.47;;
73823;SDS011;62154;54.914;73.444;2023-06-10T09:25:37;8.35;;;4.05;;
73823;SDS011;62154;54.914;73.444;2023-06-10T09:28:12;6.17;;;4.37;;
73823;SDS011;62154;54.914;73.444;2023-06-10T09:30:42;13.30;;;5.32;;
73823;SDS011;62154;54.914;73.444;2023-06-10T09:33:10;11.73;;;4.75;;
73823;SDS011;62154;54.914;73.444;2023-06-10T09:35:47;11.60;;;4.57;;
73823;SDS011;62154;54.914;73.444;2023-06-10T09:38:19;12.47;;;4.50;;
73823;SDS011;62154;54.914;73.444;2023-06-10T09:40:53;19.27;;;5.35;;
73823;SDS011;62154;54.914;73.444;2023-06-10T09:43:22;10.68;;;4.60;;
73823;SDS011;62154;54.914;73.444;2023-06-10T09:45:52;12.27;;;6.40;;
73823;SDS011;62154;54.914;73.444;2023-06-10T09:48:23;11.50;;;7.18;;
73823;SDS011;62154;54.914;73.444;2023-06-10T09:50:51;12.18;;;6.50;;
73823;SDS011;62154;54.914;73.444;2023-06-10T09:53:21;12.13;;;4.97;;
73823;SDS011;62154;54.914;73.444;2023-06-10T09:55:49;10.63;;;5.75;;
73823;SDS011;62154;54.914;73.444;2023-06-10T09:58:33;16.40;;;6.15;;
73823;SDS011;62154;54.914;73.444;2023-06-10T10:01:12;13.88;;;7.80;;
73823;SDS011;62154;54.914;73.444;2023-06-10T10:03:51;15.73;;;7.80;;
73823;SDS011;62154;54.914;73.444;2023-06-10T10:06:20;11.70;;;6.18;;
73823;SDS011;62154;54.914;73.444;2023-06-10T10:08:49;8.18;;;5.55;;
73823;SDS011;62154;54.914;73.444;2023-06-10T10:11:21;9.07;;;4.88;;
73823;SDS011;62154;54.914;73.444;2023-06-10T10:13:50;9.65;;;4.88;;
73823;SDS011;62154;54.914;73.444;2023-06-10T10:16:19;10.77;;;4.35;;
73823;SDS011;62154;54.914;73.444;2023-06-10T10:18:55;8.45;;;4.38;;
73823;SDS011;62154;54.914;73.444;2023-06-10T10:21:26;8.18;;;4.38;;
73823;SDS011;62154;54.914;73.444;2023-06-10T10:24:05;10.00;;;4.22;;
73823;SDS011;62154;54.914;73.444;2023-06-10T10:26:36;10.93;;;4.60;;
73823;SDS011;62154;54.914;73.444;2023-06-10T10:29:13;7.05;;;3.63;;
73823;SDS011;62154;54.914;73.444;2023-06-10T10:31:50;3.85;;;3.28;;
73823;SDS011;62154;54.914;73.444;2023-06-10T10:37:08;7.10;;;3.67;;
73823;SDS011;62154;54.914;73.444;2023-06-10T10:39:35;10.77;;;7.75;;
73823;SDS011;62154;54.914;73.444;2023-06-10T10:42:03;7.78;;;4.40;;
73823;SDS011;62154;54.914;73.444;2023-06-10T10:44:32;12.45;;;4.00;;
73823;SDS011;62154;54.914;73.444;2023-06-10T10:47:02;8.32;;;3.47;;
73823;SDS011;62154;54.914;73.444;2023-06-10T10:49:33;5.93;;;4.13;;
73823;SDS011;62154;54.914;73.444;2023-06-10T10:52:02;8.13;;;4.10;;
73823;SDS011;62154;54.914;73.444;2023-06-10T10:54:34;5.85;;;4.07;;
73823;SDS011;62154;54.914;73.444;2023-06-10T10:57:10;7.95;;;4.15;;
73823;SDS011;62154;54.914;73.444;2023-06-10T11:02:41;7.32;;;3.17;;
73823;SDS011;62154;54.914;73.444;2023-06-10T11:05:14;7.10;;;3.55;;
73823;SDS011;62154;54.914;73.444;2023-06-10T11:07:53;7.32;;;3.67;;
73823;SDS011;62154;54.914;73.444;2023-06-10T11:10:32;7.47;;;3.47;;
73823;SDS011;62154;54.914;73.444;2023-06-10T11:13:08;6.70;;;3.85;;
73823;SDS011;62154;54.914;73.444;2023-06-10T11:15:49;6.45;;;4.30;;
73823;SDS011;62154;54.914;73.444;2023-06-10T11:18:22;10.38;;;5.22;;
73823;SDS011;62154;54.914;73.444;2023-06-10T11:23:38;6.93;;;4.43;;
73823;SDS011;62154;54.914;73.444;2023-06-10T11:26:10;8.18;;;4.43;;
73823;SDS011;62154;54.914;73.444;2023-06-10T11:29:03;6.67;;;4.60;;
73823;SDS011;62154;54.914;73.444;2023-06-10T11:31:32;7.13;;;3.80;;
73823;SDS011;62154;54.914;73.444;2023-06-10T11:34:11;6.97;;;3.88;;
73823;SDS011;62154;54.914;73.444;2023-06-10T11:36:41;9.60;;;4.20;;
73823;SDS011;62154;54.914;73.444;2023-06-10T11:39:12;5.82;;;4.00;;
73823;SDS011;62154;54.914;73.444;2023-06-10T11:41:40;10.68;;;4.88;;
73823;SDS011;62154;54.914;73.444;2023-06-10T11:44:11;10.43;;;9.07;;
73823;SDS011;62154;54.914;73.444;2023-06-10T11:46:42;5.70;;;4.20;;
73823;SDS011;62154;54.914;73.444;2023-06-10T11:49:11;10.63;;;6.38;;
73823;SDS011;62154;54.914;73.444;2023-06-10T11:51:39;12.52;;;6.82;;
73823;SDS011;62154;54.914;73.444;2023-06-10T11:54:15;11.77;;;6.30;;
73823;SDS011;62154;54.914;73.444;2023-06-10T11:56:44;10.48;;;5.22;;
73823;SDS011;62154;54.914;73.444;2023-06-10T11:59:13;9.63;;;5.83;;
73823;SDS011;62154;54.914;73.444;2023-06-10T12:01:46;14.63;;;7.00;;
73823;SDS011;62154;54.914;73.444;2023-06-10T12:04:15;13.07;;;8.38;;
73823;SDS011;62154;54.914;73.444;2023-06-10T12:06:49;16.55;;;8.23;;
73823;SDS011;62154;54.914;73.444;2023-06-10T12:09:19;8.00;;;4.13;;
73823;SDS011;62154;54.914;73.444;2023-06-10T12:11:57;7.35;;;5.10;;
73823;SDS011;62154;54.914;73.444;2023-06-10T12:20:01;12.30;;;5.60;;
73823;SDS011;62154;54.914;73.444;2023-06-10T12:22:43;8.57;;;4.40;;
73823;SDS011;62154;54.914;73.444;2023-06-10T12:25:13;8.55;;;5.07;;
73823;SDS011;62154;54.914;73.444;2023-06-10T12:27:50;6.78;;;3.80;;
73823;SDS011;62154;54.914;73.444;2023-06-10T12:30:24;14.03;;;8.13;;
73823;SDS011;62154;54.914;73.444;2023-06-10T12:32:53;14.02;;;8.55;;
73823;SDS011;62154;54.914;73.444;2023-06-10T12:35:24;12.60;;;6.07;;
73823;SDS011;62154;54.914;73.444;2023-06-10T12:38:00;10.75;;;6.00;;
73823;SDS011;62154;54.914;73.444;2023-06-10T12:40:34;11.60;;;3.42;;
73823;SDS011;62154;54.914;73.444;2023-06-10T12:43:06;10.13;;;7.18;;
73823;SDS011;62154;54.914;73.444;2023-06-10T12:45:35;36.85;;;24.00;;
73823;SDS011;62154;54.914;73.444;2023-06-10T12:48:20;14.65;;;7.38;;
73823;SDS011;62154;54.914;73.444;2023-06-10T12:50:56;19.75;;;9.25;;
73823;SDS011;62154;54.914;73.444;2023-06-10T12:53:25;19.90;;;12.25;;
73823;SDS011;62154;54.914;73.444;2023-06-10T12:55:53;24.83;;;13.77;;
73823;SDS011;62154;54.914;73.444;2023-06-10T12:58:20;12.32;;;3.40;;
73823;SDS011;62154;54.914;73.444;2023-06-10T13:00:52;6.53;;;2.65;;
73823;SDS011;62154;54.914;73.444;2023-06-10T13:03:20;12.95;;;3.17;;
73823;SDS011;62154;54.914;73.444;2023-06-10T13:05:48;8.45;;;3.75;;
73823;SDS011;62154;54.914;73.444;2023-06-10T13:08:15;9.57;;;4.07;;
73823;SDS011;62154;54.914;73.444;2023-06-10T13:10:46;11.02;;;3.30;;
73823;SDS011;62154;54.914;73.444;2023-06-10T13:13:15;8.23;;;3.70;;
73823;SDS011;62154;54.914;73.444;2023-06-10T13:15:42;7.85;;;3.80;;
73823;SDS011;62154;54.914;73.444;2023-06-10T13:18:10;7.65;;;3.72;;
73823;SDS011;62154;54.914;73.444;2023-06-10T13:20:40;22.63;;;13.88;;
73823;SDS011;62154;54.914;73.444;2023-06-10T13:23:10;12.40;;;8.82;;
73823;SDS011;62154;54.914;73.444;2023-06-10T13:25:37;10.13;;;4.03;;
73823;SDS011;62154;54.914;73.444;2023-06-10T13:28:06;6.25;;;3.53;;
73823;SDS011;62154;54.914;73.444;2023-06-10T13:30:37;6.90;;;3.97;;
73823;SDS011;62154;54.914;73.444;2023-06-10T13:33:04;11.25;;;3.55;;
73823;SDS011;62154;54.914;73.444;2023-06-10T13:35:32;9.75;;;4.05;;
73823;SDS011;62154;54.914;73.444;2023-06-10T13:38:01;7.45;;;3.75;;
73823;SDS011;62154;54.914;73.444;2023-06-10T13:40:29;7.78;;;3.95;;
73823;SDS011;62154;54.914;73.444;2023-06-10T13:42:59;6.80;;;3.35;;
73823;SDS011;62154;54.914;73.444;2023-06-10T13:45:27;5.85;;;3.65;;
73823;SDS011;62154;54.914;73.444;2023-06-10T13:47:54;5.00;;;3.30;;
73823;SDS011;62154;54.914;73.444;2023-06-10T13:50:22;5.65;;;3.55;;
73823;SDS011;62154;54.914;73.444;2023-06-10T13:52:53;6.53;;;3.78;;
73823;SDS011;62154;54.914;73.444;2023-06-10T13:55:20;6.55;;;3.60;;
73823;SDS011;62154;54.914;73.444;2023-06-10T13:57:48;7.43;;;3.60;;
73823;SDS011;62154;54.914;73.444;2023-06-10T14:00:16;12.43;;;4.63;;
73823;SDS011;62154;54.914;73.444;2023-06-10T14:02:47;6.65;;;3.40;;
73823;SDS011;62154;54.914;73.444;2023-06-10T14:05:14;6.95;;;3.75;;
73823;SDS011;62154;54.914;73.444;2023-06-10T14:07:42;5.97;;;3.38;;
73823;SDS011;62154;54.914;73.444;2023-06-10T14:10:10;9.10;;;4.00;;
73823;SDS011;62154;54.914;73.444;2023-06-10T14:12:38;7.18;;;4.45;;
73823;SDS011;62154;54.914;73.444;2023-06-10T14:15:06;6.25;;;4.60;;
73823;SDS011;62154;54.914;73.444;2023-06-10T14:17:34;9.48;;;4.97;;
73823;SDS011;62154;54.914;73.444;2023-06-10T14:20:02;10.35;;;6.00;;
73823;SDS011;62154;54.914;73.444;2023-06-10T14:22:31;9.05;;;5.40;;
73823;SDS011;62154;54.914;73.444;2023-06-10T14:25:02;8.00;;;5.68;;
73823;SDS011;62154;54.914;73.444;2023-06-10T14:27:31;10.48;;;5.82;;
73823;SDS011;62154;54.914;73.444;2023-06-10T14:29:59;11.30;;;6.13;;
73823;SDS011;62154;54.914;73.444;2023-06-10T14:32:27;8.10;;;5.47;;
73823;SDS011;62154;54.914;73.444;2023-06-10T14:34:54;12.77;;;6.38;;
73823;SDS011;62154;54.914;73.444;2023-06-10T14:37:22;14.80;;;7.10;;
73823;SDS011;62154;54.914;73.444;2023-06-10T14:39:49;23.50;;;8.48;;
73823;SDS011;62154;54.914;73.444;2023-06-10T14:42:17;20.52;;;8.32;;
73823;SDS011;62154;54.914;73.444;2023-06-10T14:44:44;12.10;;;6.32;;
73823;SDS011;62154;54.914;73.444;2023-06-10T14:47:14;16.30;;;7.10;;
73823;SDS011;62154;54.914;73.444;2023-06-10T14:49:42;17.75;;;6.82;;
73823;SDS011;62154;54.914;73.444;2023-06-10T14:52:10;18.65;;;7.43;;
73823;SDS011;62154;54.914;73.444;2023-06-10T14:54:37;10.32;;;6.32;;
73823;SDS011;62154;54.914;73.444;2023-06-10T14:57:07;15.25;;;8.00;;
73823;SDS011;62154;54.914;73.444;2023-06-10T14:59:35;16.77;;;6.78;;
73823;SDS011;62154;54.914;73.444;2023-06-10T15:02:03;24.67;;;9.05;;
73823;SDS011;62154;54.914;73.444;2023-06-10T15:04:30;11.45;;;7.40;;